Mt New Conquest — V7GG4 — position and weather

sailwx.info

Track history (hours):
 
Tides and Currents Weather Stations Pressure Air Temp Water Temp Dewpoint Dewpoint Depression Visibility Wind Speed Wind Dir Waves Ship Positions

Mt New Conquest

Last reported at 2014-Sep-30 17:06 UTC. Time now 2014-Oct-01 22:23 UTC.
Position N 38°02' W 122°08'.

Length 228 m; draft 11.4 m.

Type: Ship (hazmat cat A). MMSI: 538002089.

Date/timePositionNaut miles runAvg speedWind from/ knotsBaromVisibWave heightAir tempDewpointWater temp
2014-Sep-30 17:06N 38°02' W 122°08'4 7.4
2014-Sep-30 16:32N 38°04' W 122°13'9 9.2
2014-Sep-30 15:34N 38°01' W 122°24'9 9.0
2014-Sep-30 14:33N 37°52' W 122°25'9 8.7
2014-Sep-30 13:34N 37°47' W 122°34'8 7.6
2014-Sep-30 12:33N 37°41' W 122°40'7 7.2
2014-Sep-30 11:34N 37°34' W 122°40'8 7.6
2014-Sep-30 10:33N 37°27' W 122°39'5 4.6
2014-Sep-30 09:33N 37°22' W 122°39'8 7.0
2014-Sep-30 08:29N 37°15' W 122°37'1211.5
2014-Sep-30 07:26N 37°04' W 122°30'1311.7
2014-Sep-30 06:21N 36°53' W 122°23'1211.2
2014-Sep-30 05:19N 36°42' W 122°17'810.6
2014-Sep-30 04:33N 36°35' W 122°12'1110.6
2014-Sep-30 03:33N 36°26' W 122°06'6 6.2
2014-Sep-30 02:33N 36°20' W 122°03'1211.5
2014-Sep-30 01:33N 36°10' W 121°56'1211.9
2014-Sep-30 00:33N 35°59' W 121°49'1211.8
2014-Sep-29 23:33N 35°48' W 121°43'1312.4
2014-Sep-29 22:31N 35°37' W 121°36'1512.6
2014-Sep-29 21:22N 35°24' W 121°28'9011.5
2014-Sep-29 13:32N 34°18' W 120°14'1111.5
2014-Sep-29 12:33N 34°15' W 120°01'1211.6
2014-Sep-29 11:33N 34°12' W 119°48'1111.6
2014-Sep-29 10:33N 34°09' W 119°34'1111.4
2014-Sep-29 09:33N 34°06' W 119°21'6111.8
2014-Sep-29 04:22N 33°38' W 118°15'6 8.0
2014-Sep-29 03:33N 33°44' W 118°11'1 1.5
2014-Sep-29 02:33N 33°44' W 118°13'0 0.1
2014-Sep-29 01:33N 33°44' W 118°13'0 0.0
2014-Sep-29 00:33N 33°44' W 118°13'0 0.1
2014-Sep-28 23:33N 33°44' W 118°13'0 0.0
2014-Sep-28 22:33N 33°44' W 118°13'0 0.1
2014-Sep-28 21:33N 33°44' W 118°13'0 0.1
2014-Sep-28 20:33N 33°44' W 118°13'0 0.1
2014-Sep-28 19:33N 33°44' W 118°13'0 0.0
2014-Sep-28 18:33N 33°44' W 118°13'0 0.1
2014-Sep-28 17:33N 33°44' W 118°13'0 0.2
2014-Sep-28 16:33N 33°44' W 118°13'2 1.7
2014-Sep-28 15:33N 33°45' W 118°13'1 1.1
2014-Sep-28 14:31N 33°46' W 118°13'0 0.0
2014-Sep-28 13:33N 33°46' W 118°13'0 0.0
2014-Sep-28 12:33N 33°46' W 118°13'0 0.0
2014-Sep-28 11:33N 33°46' W 118°13'0 0.0
2014-Sep-28 10:33N 33°46' W 118°13'0 0.0
2014-Sep-28 09:33N 33°46' W 118°13'0 0.0
2014-Sep-28 08:33N 33°46' W 118°13'0 0.0
2014-Sep-28 07:33N 33°46' W 118°13'0 0.0
2014-Sep-28 06:33N 33°46' W 118°13'0 0.0
2014-Sep-28 05:33N 33°46' W 118°13'0 0.0
2014-Sep-28 04:33N 33°46' W 118°13'0 0.0
2014-Sep-28 03:33N 33°46' W 118°13'0 0.0
2014-Sep-28 02:33N 33°46' W 118°13'0 0.0
2014-Sep-28 01:33N 33°46' W 118°13'0 0.0
2014-Sep-28 00:33N 33°46' W 118°13'0 0.0
2014-Sep-27 23:33N 33°46' W 118°13'0 0.0
2014-Sep-27 22:33N 33°46' W 118°13'0 0.0
2014-Sep-27 21:33N 33°46' W 118°13'0 0.0
2014-Sep-27 20:33N 33°46' W 118°13'0 0.0
2014-Sep-27 19:33N 33°46' W 118°13'0 0.0
2014-Sep-27 18:33N 33°46' W 118°13'0 0.0
2014-Sep-27 17:33N 33°46' W 118°13'0 0.0
2014-Sep-27 16:33N 33°46' W 118°13'0 0.0
2014-Sep-27 15:33N 33°46' W 118°13'0 0.0
2014-Sep-27 14:33N 33°46' W 118°13'0 0.0
2014-Sep-27 13:33N 33°46' W 118°13'0 0.0
2014-Sep-27 12:33N 33°46' W 118°13'0 0.0
2014-Sep-27 11:33N 33°46' W 118°13'0 0.0
2014-Sep-27 10:33N 33°46' W 118°13'0 0.0
2014-Sep-27 09:33N 33°46' W 118°13'0 0.0
2014-Sep-27 08:33N 33°46' W 118°13'0 0.0
2014-Sep-27 07:33N 33°46' W 118°13'0 0.0
2014-Sep-27 06:33N 33°46' W 118°13'0 0.0
2014-Sep-27 05:33N 33°46' W 118°13'0 0.0
2014-Sep-27 04:33N 33°46' W 118°13'0 0.0
2014-Sep-27 03:33N 33°46' W 118°13'0 0.0
2014-Sep-27 02:33N 33°46' W 118°13'0 0.0
2014-Sep-27 01:33N 33°46' W 118°13'1 1.2
2014-Sep-27 00:33N 33°45' W 118°13'3 3.3
2014-Sep-26 23:33N 33°43' W 118°11'11 9.8
2014-Sep-26 22:24N 33°32' W 118°08'1011.4
2014-Sep-26 21:33N 33°22' W 118°04'1212.2
2014-Sep-26 20:33N 33°11' W 118°00'8 8.2
2014-Sep-26 19:33N 33°03' W 117°57'1312.6
2014-Sep-26 18:33N 32°51' W 117°54'1212.3
2014-Sep-26 17:33N 32°39' W 117°50'1212.4
2014-Sep-26 16:33N 32°27' W 117°47'1211.9
2014-Sep-26 15:33N 32°15' W 117°44'10 9.9
2014-Sep-26 14:33N 32°05' W 117°41'1010.0
2014-Sep-26 13:33N 31°56' W 117°38'1211.8
2014-Sep-26 12:33N 31°44' W 117°34'1212.2
2014-Sep-26 11:33N 31°32' W 117°31'1312.0
2014-Sep-26 10:29N 31°20' W 117°27'1111.3
2014-Sep-26 09:33N 31°10' W 117°24'1111.2
2014-Sep-26 08:33N 30°59' W 117°21'1111.3
2014-Sep-26 07:33N 30°48' W 117°18'1211.7
2014-Sep-26 06:33N 30°37' W 117°15'1311.9
2014-Sep-26 05:25N 30°24' W 117°11'2712.0
2014-Sep-26 03:12N 29°58' W 117°04'1111.9
2014-Sep-26 02:16N 29°47' W 117°00'811.9
2014-Sep-26 01:33N 29°39' W 116°58'1211.8
2014-Sep-26 00:32N 29°27' W 116°55'1212.1
2014-Sep-25 23:33N 29°16' W 116°51'2412.2
2014-Sep-25 21:33N 28°52' W 116°45'6111.9
2014-Sep-25 16:27N 27°54' W 116°25'1112.4
2014-Sep-25 15:33N 27°46' W 116°17'1312.6
2014-Sep-25 14:33N 27°36' W 116°07'1312.5
2014-Sep-25 13:32N 27°26' W 115°58'1212.2
2014-Sep-25 12:33N 27°17' W 115°49'1211.9
2014-Sep-25 11:34N 27°08' W 115°41'1212.0
2014-Sep-25 10:34N 26°59' W 115°32'3210.6
2014-Sep-25 07:33N 26°34' W 115°09'1212.3
2014-Sep-25 06:34N 26°25' W 115°00'1612.5
2014-Sep-25 05:15N 26°12' W 114°49'  
Track history (hours):
 
Tides and Currents Weather Stations Pressure Air Temp Water Temp Dewpoint Dewpoint Depression Visibility Wind Speed Wind Dir Waves Ship Positions

Mt New Conquest

Last reported at 2014-Sep-30 17:06 UTC. Time now 2014-Oct-01 22:23 UTC.
Position N 38°02' W 122°08'.

Length 228 m; draft 11.4 m.

Type: Ship (hazmat cat A). MMSI: 538002089.

Date/timePositionNaut miles runAvg speedWind from/ knotsBaromVisibWave heightAir tempDewpointWater temp
2014-Sep-30 17:06N 38°02' W 122°08'4 7.4
2014-Sep-30 16:32N 38°04' W 122°13'9 9.2
2014-Sep-30 15:34N 38°01' W 122°24'9 9.0
2014-Sep-30 14:33N 37°52' W 122°25'9 8.7
2014-Sep-30 13:34N 37°47' W 122°34'8 7.6
2014-Sep-30 12:33N 37°41' W 122°40'7 7.2
2014-Sep-30 11:34N 37°34' W 122°40'8 7.6
2014-Sep-30 10:33N 37°27' W 122°39'5 4.6
2014-Sep-30 09:33N 37°22' W 122°39'8 7.0
2014-Sep-30 08:29N 37°15' W 122°37'1211.5
2014-Sep-30 07:26N 37°04' W 122°30'1311.7
2014-Sep-30 06:21N 36°53' W 122°23'1211.2
2014-Sep-30 05:19N 36°42' W 122°17'810.6
2014-Sep-30 04:33N 36°35' W 122°12'1110.6
2014-Sep-30 03:33N 36°26' W 122°06'6 6.2
2014-Sep-30 02:33N 36°20' W 122°03'1211.5
2014-Sep-30 01:33N 36°10' W 121°56'1211.9
2014-Sep-30 00:33N 35°59' W 121°49'1211.8
2014-Sep-29 23:33N 35°48' W 121°43'1312.4
2014-Sep-29 22:31N 35°37' W 121°36'1512.6
2014-Sep-29 21:22N 35°24' W 121°28'9011.5
2014-Sep-29 13:32N 34°18' W 120°14'1111.5
2014-Sep-29 12:33N 34°15' W 120°01'1211.6
2014-Sep-29 11:33N 34°12' W 119°48'1111.6
2014-Sep-29 10:33N 34°09' W 119°34'1111.4
2014-Sep-29 09:33N 34°06' W 119°21'6111.8
2014-Sep-29 04:22N 33°38' W 118°15'6 8.0
2014-Sep-29 03:33N 33°44' W 118°11'1 1.5
2014-Sep-29 02:33N 33°44' W 118°13'0 0.1
2014-Sep-29 01:33N 33°44' W 118°13'0 0.0
2014-Sep-29 00:33N 33°44' W 118°13'0 0.1
2014-Sep-28 23:33N 33°44' W 118°13'0 0.0
2014-Sep-28 22:33N 33°44' W 118°13'0 0.1
2014-Sep-28 21:33N 33°44' W 118°13'0 0.1
2014-Sep-28 20:33N 33°44' W 118°13'0 0.1
2014-Sep-28 19:33N 33°44' W 118°13'0 0.0
2014-Sep-28 18:33N 33°44' W 118°13'0 0.1
2014-Sep-28 17:33N 33°44' W 118°13'0 0.2
2014-Sep-28 16:33N 33°44' W 118°13'2 1.7
2014-Sep-28 15:33N 33°45' W 118°13'1 1.1
2014-Sep-28 14:31N 33°46' W 118°13'0 0.0
2014-Sep-28 13:33N 33°46' W 118°13'0 0.0
2014-Sep-28 12:33N 33°46' W 118°13'0 0.0
2014-Sep-28 11:33N 33°46' W 118°13'0 0.0
2014-Sep-28 10:33N 33°46' W 118°13'0 0.0
2014-Sep-28 09:33N 33°46' W 118°13'0 0.0
2014-Sep-28 08:33N 33°46' W 118°13'0 0.0
2014-Sep-28 07:33N 33°46' W 118°13'0 0.0
2014-Sep-28 06:33N 33°46' W 118°13'0 0.0
2014-Sep-28 05:33N 33°46' W 118°13'0 0.0
2014-Sep-28 04:33N 33°46' W 118°13'0 0.0
2014-Sep-28 03:33N 33°46' W 118°13'0 0.0
2014-Sep-28 02:33N 33°46' W 118°13'0 0.0
2014-Sep-28 01:33N 33°46' W 118°13'0 0.0
2014-Sep-28 00:33N 33°46' W 118°13'0 0.0
2014-Sep-27 23:33N 33°46' W 118°13'0 0.0
2014-Sep-27 22:33N 33°46' W 118°13'0 0.0
2014-Sep-27 21:33N 33°46' W 118°13'0 0.0
2014-Sep-27 20:33N 33°46' W 118°13'0 0.0
2014-Sep-27 19:33N 33°46' W 118°13'0 0.0
2014-Sep-27 18:33N 33°46' W 118°13'0 0.0
2014-Sep-27 17:33N 33°46' W 118°13'0 0.0
2014-Sep-27 16:33N 33°46' W 118°13'0 0.0
2014-Sep-27 15:33N 33°46' W 118°13'0 0.0
2014-Sep-27 14:33N 33°46' W 118°13'0 0.0
2014-Sep-27 13:33N 33°46' W 118°13'0 0.0
2014-Sep-27 12:33N 33°46' W 118°13'0 0.0
2014-Sep-27 11:33N 33°46' W 118°13'0 0.0
2014-Sep-27 10:33N 33°46' W 118°13'0 0.0
2014-Sep-27 09:33N 33°46' W 118°13'0 0.0
2014-Sep-27 08:33N 33°46' W 118°13'0 0.0
2014-Sep-27 07:33N 33°46' W 118°13'0 0.0
2014-Sep-27 06:33N 33°46' W 118°13'0 0.0
2014-Sep-27 05:33N 33°46' W 118°13'0 0.0
2014-Sep-27 04:33N 33°46' W 118°13'0 0.0
2014-Sep-27 03:33N 33°46' W 118°13'0 0.0
2014-Sep-27 02:33N 33°46' W 118°13'0 0.0
2014-Sep-27 01:33N 33°46' W 118°13'1 1.2
2014-Sep-27 00:33N 33°45' W 118°13'3 3.3
2014-Sep-26 23:33N 33°43' W 118°11'11 9.8
2014-Sep-26 22:24N 33°32' W 118°08'1011.4
2014-Sep-26 21:33N 33°22' W 118°04'1212.2
2014-Sep-26 20:33N 33°11' W 118°00'8 8.2
2014-Sep-26 19:33N 33°03' W 117°57'1312.6
2014-Sep-26 18:33N 32°51' W 117°54'1212.3
2014-Sep-26 17:33N 32°39' W 117°50'1212.4
2014-Sep-26 16:33N 32°27' W 117°47'1211.9
2014-Sep-26 15:33N 32°15' W 117°44'10 9.9
2014-Sep-26 14:33N 32°05' W 117°41'1010.0
2014-Sep-26 13:33N 31°56' W 117°38'1211.8
2014-Sep-26 12:33N 31°44' W 117°34'1212.2
2014-Sep-26 11:33N 31°32' W 117°31'1312.0
2014-Sep-26 10:29N 31°20' W 117°27'1111.3
2014-Sep-26 09:33N 31°10' W 117°24'1111.2
2014-Sep-26 08:33N 30°59' W 117°21'1111.3
2014-Sep-26 07:33N 30°48' W 117°18'1211.7
2014-Sep-26 06:33N 30°37' W 117°15'1311.9
2014-Sep-26 05:25N 30°24' W 117°11'2712.0
2014-Sep-26 03:12N 29°58' W 117°04'1111.9
2014-Sep-26 02:16N 29°47' W 117°00'811.9
2014-Sep-26 01:33N 29°39' W 116°58'1211.8
2014-Sep-26 00:32N 29°27' W 116°55'1212.1
2014-Sep-25 23:33N 29°16' W 116°51'2412.2
2014-Sep-25 21:33N 28°52' W 116°45'6111.9
2014-Sep-25 16:27N 27°54' W 116°25'1112.4
2014-Sep-25 15:33N 27°46' W 116°17'1312.6
2014-Sep-25 14:33N 27°36' W 116°07'1312.5
2014-Sep-25 13:32N 27°26' W 115°58'1212.2
2014-Sep-25 12:33N 27°17' W 115°49'1211.9
2014-Sep-25 11:34N 27°08' W 115°41'1212.0
2014-Sep-25 10:34N 26°59' W 115°32'3210.6
2014-Sep-25 07:33N 26°34' W 115°09'1212.3
2014-Sep-25 06:34N 26°25' W 115°00'1612.5
2014-Sep-25 05:15N 26°12' W 114°49'  

Dump ship's entire track history